sensor_id;sensor_type;location;lat;lon;timestamp;P1;durP1;ratioP1;P2;durP2;ratioP2
12118;SDS011;6123;48.864;9.200;2023-11-22T00:00:01;3.55;;;3.13;;
12118;SDS011;6123;48.864;9.200;2023-11-22T00:02:28;3.30;;;3.10;;
12118;SDS011;6123;48.864;9.200;2023-11-22T00:04:54;3.50;;;3.20;;
12118;SDS011;6123;48.864;9.200;2023-11-22T00:07:20;3.50;;;3.20;;
12118;SDS011;6123;48.864;9.200;2023-11-22T00:09:46;3.70;;;3.40;;
12118;SDS011;6123;48.864;9.200;2023-11-22T00:12:12;4.35;;;4.05;;
12118;SDS011;6123;48.864;9.200;2023-11-22T00:14:38;4.43;;;4.13;;
12118;SDS011;6123;48.864;9.200;2023-11-22T00:17:04;4.28;;;3.88;;
12118;SDS011;6123;48.864;9.200;2023-11-22T00:19:30;4.30;;;3.90;;
12118;SDS011;6123;48.864;9.200;2023-11-22T00:21:56;4.22;;;3.92;;
12118;SDS011;6123;48.864;9.200;2023-11-22T00:24:21;4.18;;;3.83;;
12118;SDS011;6123;48.864;9.200;2023-11-22T00:26:47;3.85;;;3.55;;
12118;SDS011;6123;48.864;9.200;2023-11-22T00:29:12;4.15;;;3.78;;
12118;SDS011;6123;48.864;9.200;2023-11-22T00:31:38;4.13;;;3.83;;
12118;SDS011;6123;48.864;9.200;2023-11-22T00:34:05;4.40;;;3.90;;
12118;SDS011;6123;48.864;9.200;2023-11-22T00:36:31;4.40;;;4.05;;
12118;SDS011;6123;48.864;9.200;2023-11-22T00:38:57;4.47;;;4.07;;
12118;SDS011;6123;48.864;9.200;2023-11-22T00:41:22;4.63;;;4.13;;
12118;SDS011;6123;48.864;9.200;2023-11-22T00:43:48;5.05;;;4.55;;
12118;SDS011;6123;48.864;9.200;2023-11-22T00:46:13;4.68;;;4.28;;
12118;SDS011;6123;48.864;9.200;2023-11-22T00:48:39;4.82;;;4.32;;
12118;SDS011;6123;48.864;9.200;2023-11-22T00:51:05;4.85;;;3.78;;
12118;SDS011;6123;48.864;9.200;2023-11-22T00:53:34;4.70;;;4.35;;
12118;SDS011;6123;48.864;9.200;2023-11-22T00:56:01;4.45;;;4.05;;
12118;SDS011;6123;48.864;9.200;2023-11-22T00:58:27;4.63;;;4.25;;
12118;SDS011;6123;48.864;9.200;2023-11-22T01:00:53;4.40;;;4.00;;
12118;SDS011;6123;48.864;9.200;2023-11-22T01:03:18;4.38;;;3.97;;
12118;SDS011;6123;48.864;9.200;2023-11-22T01:05:44;4.53;;;4.15;;
12118;SDS011;6123;48.864;9.200;2023-11-22T01:08:11;4.35;;;4.05;;
12118;SDS011;6123;48.864;9.200;2023-11-22T01:10:38;3.97;;;3.67;;
12118;SDS011;6123;48.864;9.200;2023-11-22T01:13:04;4.70;;;4.10;;
12118;SDS011;6123;48.864;9.200;2023-11-22T01:15:30;4.85;;;4.45;;
12118;SDS011;6123;48.864;9.200;2023-11-22T01:17:55;4.28;;;3.85;;
12118;SDS011;6123;48.864;9.200;2023-11-22T01:20:21;4.13;;;3.83;;
12118;SDS011;6123;48.864;9.200;2023-11-22T01:22:48;4.20;;;3.80;;
12118;SDS011;6123;48.864;9.200;2023-11-22T01:25:14;4.20;;;3.90;;
12118;SDS011;6123;48.864;9.200;2023-11-22T01:27:39;3.83;;;3.53;;
12118;SDS011;6123;48.864;9.200;2023-11-22T01:30:05;3.78;;;3.55;;
12118;SDS011;6123;48.864;9.200;2023-11-22T01:32:32;4.53;;;4.15;;
12118;SDS011;6123;48.864;9.200;2023-11-22T01:34:59;3.95;;;3.67;;
12118;SDS011;6123;48.864;9.200;2023-11-22T01:37:25;3.67;;;3.33;;
12118;SDS011;6123;48.864;9.200;2023-11-22T01:39:52;3.83;;;3.53;;
12118;SDS011;6123;48.864;9.200;2023-11-22T01:42:19;3.20;;;3.00;;
12118;SDS011;6123;48.864;9.200;2023-11-22T01:44:45;3.20;;;3.00;;
12118;SDS011;6123;48.864;9.200;2023-11-22T01:47:12;3.42;;;3.22;;
12118;SDS011;6123;48.864;9.200;2023-11-22T01:49:39;3.30;;;3.10;;
12118;SDS011;6123;48.864;9.200;2023-11-22T01:52:05;4.10;;;3.80;;
12118;SDS011;6123;48.864;9.200;2023-11-22T01:54:31;3.53;;;3.13;;
12118;SDS011;6123;48.864;9.200;2023-11-22T01:56:57;4.10;;;3.70;;
12118;SDS011;6123;48.864;9.200;2023-11-22T01:59:24;3.10;;;2.90;;
12118;SDS011;6123;48.864;9.200;2023-11-22T02:01:51;3.05;;;2.85;;
12118;SDS011;6123;48.864;9.200;2023-11-22T02:04:18;3.65;;;3.35;;
12118;SDS011;6123;48.864;9.200;2023-11-22T02:06:43;3.42;;;3.13;;
12118;SDS011;6123;48.864;9.200;2023-11-22T02:09:10;3.17;;;2.97;;
12118;SDS011;6123;48.864;9.200;2023-11-22T02:11:38;3.17;;;2.83;;
12118;SDS011;6123;48.864;9.200;2023-11-22T02:14:04;2.85;;;2.65;;
12118;SDS011;6123;48.864;9.200;2023-11-22T02:16:32;3.40;;;3.20;;
12118;SDS011;6123;48.864;9.200;2023-11-22T02:18:57;3.20;;;2.90;;
12118;SDS011;6123;48.864;9.200;2023-11-22T02:21:23;3.22;;;2.88;;
12118;SDS011;6123;48.864;9.200;2023-11-22T02:23:49;3.00;;;2.80;;
12118;SDS011;6123;48.864;9.200;2023-11-22T02:26:14;2.97;;;2.75;;
12118;SDS011;6123;48.864;9.200;2023-11-22T02:28:43;3.63;;;3.30;;
12118;SDS011;6123;48.864;9.200;2023-11-22T02:31:09;3.28;;;3.00;;
12118;SDS011;6123;48.864;9.200;2023-11-22T02:33:35;2.85;;;2.65;;
12118;SDS011;6123;48.864;9.200;2023-11-22T02:36:00;3.40;;;3.08;;
12118;SDS011;6123;48.864;9.200;2023-11-22T02:38:27;3.50;;;3.20;;
12118;SDS011;6123;48.864;9.200;2023-11-22T02:40:53;3.25;;;3.00;;
12118;SDS011;6123;48.864;9.200;2023-11-22T02:43:19;3.25;;;3.05;;
12118;SDS011;6123;48.864;9.200;2023-11-22T02:45:45;3.10;;;2.90;;
12118;SDS011;6123;48.864;9.200;2023-11-22T02:48:11;3.35;;;3.05;;
12118;SDS011;6123;48.864;9.200;2023-11-22T02:50:36;3.50;;;3.20;;
12118;SDS011;6123;48.864;9.200;2023-11-22T02:53:02;3.60;;;3.30;;
12118;SDS011;6123;48.864;9.200;2023-11-22T02:55:28;3.08;;;2.88;;
12118;SDS011;6123;48.864;9.200;2023-11-22T02:57:54;3.25;;;2.95;;
12118;SDS011;6123;48.864;9.200;2023-11-22T03:00:20;4.25;;;3.35;;
12118;SDS011;6123;48.864;9.200;2023-11-22T03:02:46;3.53;;;3.22;;
12118;SDS011;6123;48.864;9.200;2023-11-22T03:05:12;3.55;;;3.25;;
12118;SDS011;6123;48.864;9.200;2023-11-22T03:07:39;3.20;;;2.90;;
12118;SDS011;6123;48.864;9.200;2023-11-22T03:10:06;3.30;;;3.10;;
12118;SDS011;6123;48.864;9.200;2023-11-22T03:15:16;3.50;;;3.20;;
12118;SDS011;6123;48.864;9.200;2023-11-22T03:17:42;3.60;;;3.30;;
12118;SDS011;6123;48.864;9.200;2023-11-22T03:20:09;3.40;;;3.10;;
12118;SDS011;6123;48.864;9.200;2023-11-22T03:22:36;3.65;;;3.35;;
12118;SDS011;6123;48.864;9.200;2023-11-22T03:25:02;3.67;;;3.38;;
12118;SDS011;6123;48.864;9.200;2023-11-22T03:27:28;3.95;;;3.65;;
12118;SDS011;6123;48.864;9.200;2023-11-22T03:29:54;3.58;;;3.28;;
12118;SDS011;6123;48.864;9.200;2023-11-22T03:32:20;3.88;;;3.58;;
12118;SDS011;6123;48.864;9.200;2023-11-22T03:34:45;3.97;;;3.58;;
12118;SDS011;6123;48.864;9.200;2023-11-22T03:37:11;3.80;;;3.50;;
12118;SDS011;6123;48.864;9.200;2023-11-22T03:39:36;3.70;;;3.40;;
12118;SDS011;6123;48.864;9.200;2023-11-22T03:42:02;4.28;;;3.97;;
12118;SDS011;6123;48.864;9.200;2023-11-22T03:44:28;3.67;;;3.38;;
12118;SDS011;6123;48.864;9.200;2023-11-22T03:46:54;3.95;;;3.55;;
12118;SDS011;6123;48.864;9.200;2023-11-22T03:49:20;4.13;;;3.80;;
12118;SDS011;6123;48.864;9.200;2023-11-22T03:51:46;3.88;;;3.58;;
12118;SDS011;6123;48.864;9.200;2023-11-22T03:54:12;4.18;;;3.85;;
12118;SDS011;6123;48.864;9.200;2023-11-22T03:56:38;3.70;;;3.40;;
12118;SDS011;6123;48.864;9.200;2023-11-22T03:59:04;3.33;;;3.13;;
12118;SDS011;6123;48.864;9.200;2023-11-22T04:01:30;3.47;;;3.17;;
12118;SDS011;6123;48.864;9.200;2023-11-22T04:03:56;3.63;;;3.33;;
12118;SDS011;6123;48.864;9.200;2023-11-22T04:06:21;3.70;;;3.40;;
12118;SDS011;6123;48.864;9.200;2023-11-22T04:08:48;3.65;;;3.35;;
12118;SDS011;6123;48.864;9.200;2023-11-22T04:11:13;3.80;;;3.50;;
12118;SDS011;6123;48.864;9.200;2023-11-22T04:13:40;3.63;;;3.33;;
12118;SDS011;6123;48.864;9.200;2023-11-22T04:16:08;3.88;;;3.58;;
12118;SDS011;6123;48.864;9.200;2023-11-22T04:18:37;3.58;;;3.28;;
12118;SDS011;6123;48.864;9.200;2023-11-22T04:21:03;3.30;;;3.10;;
12118;SDS011;6123;48.864;9.200;2023-11-22T04:23:33;3.63;;;3.33;;
12118;SDS011;6123;48.864;9.200;2023-11-22T04:25:59;3.70;;;3.40;;
12118;SDS011;6123;48.864;9.200;2023-11-22T04:28:25;3.33;;;3.08;;
12118;SDS011;6123;48.864;9.200;2023-11-22T04:30:52;3.50;;;3.20;;
12118;SDS011;6123;48.864;9.200;2023-11-22T04:33:19;3.25;;;2.95;;
12118;SDS011;6123;48.864;9.200;2023-11-22T04:35:45;2.95;;;2.75;;
12118;SDS011;6123;48.864;9.200;2023-11-22T04:38:11;3.28;;;3.08;;
12118;SDS011;6123;48.864;9.200;2023-11-22T04:40:36;3.15;;;2.95;;
12118;SDS011;6123;48.864;9.200;2023-11-22T04:43:02;3.25;;;2.97;;
12118;SDS011;6123;48.864;9.200;2023-11-22T04:45:28;3.15;;;2.95;;
12118;SDS011;6123;48.864;9.200;2023-11-22T04:47:53;3.40;;;3.10;;
12118;SDS011;6123;48.864;9.200;2023-11-22T04:50:22;3.10;;;2.90;;
12118;SDS011;6123;48.864;9.200;2023-11-22T04:52:49;3.30;;;3.08;;
12118;SDS011;6123;48.864;9.200;2023-11-22T04:55:15;2.90;;;2.67;;
12118;SDS011;6123;48.864;9.200;2023-11-22T04:57:40;3.15;;;2.95;;
12118;SDS011;6123;48.864;9.200;2023-11-22T05:00:06;3.50;;;3.20;;
12118;SDS011;6123;48.864;9.200;2023-11-22T05:02:32;3.65;;;3.35;;
12118;SDS011;6123;48.864;9.200;2023-11-22T05:04:58;3.28;;;3.00;;
12118;SDS011;6123;48.864;9.200;2023-11-22T05:07:23;3.38;;;3.08;;
12118;SDS011;6123;48.864;9.200;2023-11-22T05:09:49;3.10;;;2.80;;
12118;SDS011;6123;48.864;9.200;2023-11-22T05:12:15;2.88;;;2.67;;
12118;SDS011;6123;48.864;9.200;2023-11-22T05:14:40;3.22;;;3.00;;
12118;SDS011;6123;48.864;9.200;2023-11-22T05:17:08;2.88;;;2.67;;
12118;SDS011;6123;48.864;9.200;2023-11-22T05:19:33;3.10;;;2.90;;
12118;SDS011;6123;48.864;9.200;2023-11-22T05:21:59;3.30;;;3.00;;
12118;SDS011;6123;48.864;9.200;2023-11-22T05:24:25;3.35;;;2.72;;
12118;SDS011;6123;48.864;9.200;2023-11-22T05:26:51;3.22;;;2.92;;
12118;SDS011;6123;48.864;9.200;2023-11-22T05:29:16;3.15;;;2.95;;
12118;SDS011;6123;48.864;9.200;2023-11-22T05:31:42;4.60;;;3.10;;
12118;SDS011;6123;48.864;9.200;2023-11-22T05:34:07;3.28;;;2.97;;
12118;SDS011;6123;48.864;9.200;2023-11-22T05:36:33;2.72;;;2.53;;
12118;SDS011;6123;48.864;9.200;2023-11-22T05:38:59;2.97;;;2.70;;
12118;SDS011;6123;48.864;9.200;2023-11-22T05:41:24;3.33;;;3.03;;
12118;SDS011;6123;48.864;9.200;2023-11-22T05:43:51;3.53;;;3.00;;
12118;SDS011;6123;48.864;9.200;2023-11-22T05:46:17;3.20;;;2.90;;
12118;SDS011;6123;48.864;9.200;2023-11-22T05:48:47;3.20;;;2.83;;
12118;SDS011;6123;48.864;9.200;2023-11-22T05:51:13;3.65;;;2.67;;
12118;SDS011;6123;48.864;9.200;2023-11-22T05:53:39;2.95;;;2.75;;
12118;SDS011;6123;48.864;9.200;2023-11-22T05:56:06;3.17;;;2.88;;
12118;SDS011;6123;48.864;9.200;2023-11-22T05:58:32;3.05;;;2.85;;
12118;SDS011;6123;48.864;9.200;2023-11-22T06:00:58;3.03;;;2.83;;
12118;SDS011;6123;48.864;9.200;2023-11-22T06:03:23;3.17;;;2.88;;
12118;SDS011;6123;48.864;9.200;2023-11-22T06:05:49;2.88;;;2.67;;
12118;SDS011;6123;48.864;9.200;2023-11-22T06:08:15;2.92;;;2.72;;
12118;SDS011;6123;48.864;9.200;2023-11-22T06:10:41;3.28;;;2.88;;
12118;SDS011;6123;48.864;9.200;2023-11-22T06:13:07;2.78;;;2.58;;
12118;SDS011;6123;48.864;9.200;2023-11-22T06:15:33;2.72;;;2.53;;
12118;SDS011;6123;48.864;9.200;2023-11-22T06:17:59;2.75;;;2.45;;
12118;SDS011;6123;48.864;9.200;2023-11-22T06:20:24;2.70;;;2.50;;
12118;SDS011;6123;48.864;9.200;2023-11-22T06:22:52;2.55;;;2.35;;
12118;SDS011;6123;48.864;9.200;2023-11-22T06:25:17;2.90;;;2.60;;
12118;SDS011;6123;48.864;9.200;2023-11-22T06:27:43;2.78;;;2.58;;
12118;SDS011;6123;48.864;9.200;2023-11-22T06:30:09;3.28;;;2.97;;
12118;SDS011;6123;48.864;9.200;2023-11-22T06:32:35;2.53;;;2.33;;
12118;SDS011;6123;48.864;9.200;2023-11-22T06:35:01;2.80;;;2.60;;
12118;SDS011;6123;48.864;9.200;2023-11-22T06:37:26;2.72;;;2.50;;
12118;SDS011;6123;48.864;9.200;2023-11-22T06:39:52;5.03;;;2.10;;
12118;SDS011;6123;48.864;9.200;2023-11-22T06:42:18;2.90;;;2.60;;
12118;SDS011;6123;48.864;9.200;2023-11-22T06:44:47;2.70;;;2.50;;
12118;SDS011;6123;48.864;9.200;2023-11-22T06:47:17;2.70;;;2.50;;
12118;SDS011;6123;48.864;9.200;2023-11-22T06:49:43;2.10;;;1.95;;
12118;SDS011;6123;48.864;9.200;2023-11-22T06:52:09;2.72;;;2.20;;
12118;SDS011;6123;48.864;9.200;2023-11-22T06:54:35;3.08;;;2.65;;
12118;SDS011;6123;48.864;9.200;2023-11-22T06:57:01;2.65;;;2.45;;
12118;SDS011;6123;48.864;9.200;2023-11-22T06:59:27;2.90;;;2.60;;
12118;SDS011;6123;48.864;9.200;2023-11-22T07:01:53;2.50;;;2.30;;
12118;SDS011;6123;48.864;9.200;2023-11-22T07:04:20;2.50;;;2.30;;
12118;SDS011;6123;48.864;9.200;2023-11-22T07:06:47;2.22;;;2.13;;
12118;SDS011;6123;48.864;9.200;2023-11-22T07:09:14;2.63;;;2.28;;
12118;SDS011;6123;48.864;9.200;2023-11-22T07:11:40;2.75;;;2.45;;
12118;SDS011;6123;48.864;9.200;2023-11-22T07:14:05;3.70;;;2.50;;
12118;SDS011;6123;48.864;9.200;2023-11-22T07:16:33;2.60;;;2.40;;
12118;SDS011;6123;48.864;9.200;2023-11-22T07:19:02;2.25;;;2.05;;
12118;SDS011;6123;48.864;9.200;2023-11-22T07:21:31;2.50;;;2.30;;
12118;SDS011;6123;48.864;9.200;2023-11-22T07:23:56;2.70;;;2.50;;
12118;SDS011;6123;48.864;9.200;2023-11-22T07:26:23;3.03;;;2.20;;
12118;SDS011;6123;48.864;9.200;2023-11-22T07:28:52;4.00;;;2.22;;
12118;SDS011;6123;48.864;9.200;2023-11-22T07:31:18;3.53;;;2.58;;
12118;SDS011;6123;48.864;9.200;2023-11-22T07:33:44;3.28;;;2.38;;
12118;SDS011;6123;48.864;9.200;2023-11-22T07:36:10;2.85;;;2.20;;
12118;SDS011;6123;48.864;9.200;2023-11-22T07:38:39;3.00;;;2.70;;
12118;SDS011;6123;48.864;9.200;2023-11-22T07:41:06;2.45;;;2.28;;
12118;SDS011;6123;48.864;9.200;2023-11-22T07:43:32;2.22;;;2.13;;
12118;SDS011;6123;48.864;9.200;2023-11-22T07:45:57;2.72;;;2.47;;
12118;SDS011;6123;48.864;9.200;2023-11-22T07:48:24;2.80;;;2.60;;
12118;SDS011;6123;48.864;9.200;2023-11-22T07:50:50;2.88;;;2.20;;
12118;SDS011;6123;48.864;9.200;2023-11-22T07:53:17;2.50;;;2.20;;
12118;SDS011;6123;48.864;9.200;2023-11-22T07:55:42;2.38;;;2.17;;
12118;SDS011;6123;48.864;9.200;2023-11-22T07:58:08;2.72;;;2.53;;
12118;SDS011;6123;48.864;9.200;2023-11-22T08:00:35;2.50;;;2.30;;
12118;SDS011;6123;48.864;9.200;2023-11-22T08:03:02;4.30;;;2.28;;
12118;SDS011;6123;48.864;9.200;2023-11-22T08:05:28;2.55;;;2.20;;
12118;SDS011;6123;48.864;9.200;2023-11-22T08:07:54;2.63;;;2.42;;
12118;SDS011;6123;48.864;9.200;2023-11-22T08:10:20;4.18;;;2.80;;
12118;SDS011;6123;48.864;9.200;2023-11-22T08:12:46;2.92;;;2.70;;
12118;SDS011;6123;48.864;9.200;2023-11-22T08:15:14;2.65;;;2.45;;
12118;SDS011;6123;48.864;9.200;2023-11-22T08:17:42;3.17;;;2.85;;
12118;SDS011;6123;48.864;9.200;2023-11-22T08:20:08;2.70;;;2.50;;
12118;SDS011;6123;48.864;9.200;2023-11-22T08:22:39;2.97;;;2.78;;
12118;SDS011;6123;48.864;9.200;2023-11-22T08:25:05;3.10;;;2.80;;
12118;SDS011;6123;48.864;9.200;2023-11-22T08:27:37;3.00;;;2.80;;
12118;SDS011;6123;48.864;9.200;2023-11-22T08:30:04;3.22;;;2.85;;
12118;SDS011;6123;48.864;9.200;2023-11-22T08:32:30;2.97;;;2.78;;
12118;SDS011;6123;48.864;9.200;2023-11-22T08:34:57;3.50;;;3.20;;
12118;SDS011;6123;48.864;9.200;2023-11-22T08:37:22;3.13;;;2.85;;
12118;SDS011;6123;48.864;9.200;2023-11-22T08:39:48;3.25;;;2.95;;
12118;SDS011;6123;48.864;9.200;2023-11-22T08:42:14;3.40;;;3.10;;
12118;SDS011;6123;48.864;9.200;2023-11-22T08:44:40;5.25;;;2.90;;
12118;SDS011;6123;48.864;9.200;2023-11-22T08:47:06;3.35;;;3.05;;
12118;SDS011;6123;48.864;9.200;2023-11-22T08:49:33;3.60;;;3.22;;
12118;SDS011;6123;48.864;9.200;2023-11-22T08:51:59;3.15;;;2.85;;
12118;SDS011;6123;48.864;9.200;2023-11-22T08:54:25;4.07;;;3.42;;
12118;SDS011;6123;48.864;9.200;2023-11-22T08:56:55;3.80;;;3.00;;
12118;SDS011;6123;48.864;9.200;2023-11-22T08:59:23;3.55;;;3.25;;
12118;SDS011;6123;48.864;9.200;2023-11-22T09:01:49;3.65;;;3.20;;
12118;SDS011;6123;48.864;9.200;2023-11-22T09:04:14;3.17;;;2.95;;
12118;SDS011;6123;48.864;9.200;2023-11-22T09:06:41;3.40;;;3.10;;
12118;SDS011;6123;48.864;9.200;2023-11-22T09:09:07;3.20;;;2.90;;
12118;SDS011;6123;48.864;9.200;2023-11-22T09:11:33;4.50;;;3.28;;
12118;SDS011;6123;48.864;9.200;2023-11-22T09:13:59;4.60;;;3.42;;
12118;SDS011;6123;48.864;9.200;2023-11-22T09:16:34;3.30;;;3.00;;
12118;SDS011;6123;48.864;9.200;2023-11-22T09:19:00;3.45;;;3.15;;
12118;SDS011;6123;48.864;9.200;2023-11-22T09:21:26;3.15;;;2.95;;
12118;SDS011;6123;48.864;9.200;2023-11-22T09:23:51;3.90;;;3.50;;
12118;SDS011;6123;48.864;9.200;2023-11-22T09:26:17;3.50;;;3.20;;
12118;SDS011;6123;48.864;9.200;2023-11-22T09:28:43;3.63;;;3.33;;
12118;SDS011;6123;48.864;9.200;2023-11-22T09:31:09;3.60;;;3.30;;
12118;SDS011;6123;48.864;9.200;2023-11-22T09:33:38;4.10;;;3.35;;
12118;SDS011;6123;48.864;9.200;2023-11-22T09:36:03;3.85;;;3.55;;
12118;SDS011;6123;48.864;9.200;2023-11-22T09:38:29;3.78;;;3.33;;
12118;SDS011;6123;48.864;9.200;2023-11-22T09:40:55;4.28;;;3.33;;
12118;SDS011;6123;48.864;9.200;2023-11-22T09:43:21;4.20;;;3.80;;
12118;SDS011;6123;48.864;9.200;2023-11-22T09:45:49;3.85;;;3.55;;
12118;SDS011;6123;48.864;9.200;2023-11-22T09:48:19;3.90;;;3.50;;
12118;SDS011;6123;48.864;9.200;2023-11-22T09:51:04;4.68;;;3.67;;
12118;SDS011;6123;48.864;9.200;2023-11-22T09:54:03;3.85;;;3.47;;
12118;SDS011;6123;48.864;9.200;2023-11-22T09:56:32;5.80;;;4.13;;
12118;SDS011;6123;48.864;9.200;2023-11-22T09:58:59;4.03;;;3.63;;
12118;SDS011;6123;48.864;9.200;2023-11-22T10:01:28;3.53;;;3.22;;
12118;SDS011;6123;48.864;9.200;2023-11-22T10:03:55;3.63;;;3.33;;
12118;SDS011;6123;48.864;9.200;2023-11-22T10:06:23;3.55;;;3.25;;
12118;SDS011;6123;48.864;9.200;2023-11-22T10:08:48;3.72;;;3.33;;
12118;SDS011;6123;48.864;9.200;2023-11-22T10:11:15;4.10;;;3.60;;
12118;SDS011;6123;48.864;9.200;2023-11-22T10:13:42;4.13;;;3.78;;
12118;SDS011;6123;48.864;9.200;2023-11-22T10:16:15;3.80;;;3.50;;
12118;SDS011;6123;48.864;9.200;2023-11-22T10:18:44;3.55;;;3.25;;
12118;SDS011;6123;48.864;9.200;2023-11-22T10:21:21;3.88;;;3.58;;
12118;SDS011;6123;48.864;9.200;2023-11-22T10:23:47;3.92;;;3.30;;
12118;SDS011;6123;48.864;9.200;2023-11-22T10:26:13;4.00;;;3.65;;
12118;SDS011;6123;48.864;9.200;2023-11-22T10:28:40;3.58;;;3.28;;
12118;SDS011;6123;48.864;9.200;2023-11-22T10:31:07;3.90;;;3.58;;
12118;SDS011;6123;48.864;9.200;2023-11-22T10:33:33;4.20;;;3.28;;
12118;SDS011;6123;48.864;9.200;2023-11-22T10:36:05;4.15;;;3.75;;
12118;SDS011;6123;48.864;9.200;2023-11-22T10:38:33;3.60;;;3.30;;
12118;SDS011;6123;48.864;9.200;2023-11-22T10:40:59;4.10;;;3.70;;
12118;SDS011;6123;48.864;9.200;2023-11-22T10:43:29;4.50;;;3.90;;
12118;SDS011;6123;48.864;9.200;2023-11-22T10:45:59;4.53;;;4.13;;
12118;SDS011;6123;48.864;9.200;2023-11-22T10:48:27;4.38;;;3.60;;
12118;SDS011;6123;48.864;9.200;2023-11-22T10:50:54;4.43;;;3.60;;
12118;SDS011;6123;48.864;9.200;2023-11-22T10:53:22;3.88;;;3.58;;
12118;SDS011;6123;48.864;9.200;2023-11-22T10:55:59;4.55;;;4.15;;
12118;SDS011;6123;48.864;9.200;2023-11-22T10:58:31;4.22;;;3.83;;
12118;SDS011;6123;48.864;9.200;2023-11-22T11:00:58;3.75;;;3.45;;
12118;SDS011;6123;48.864;9.200;2023-11-22T11:03:25;4.90;;;3.70;;
12118;SDS011;6123;48.864;9.200;2023-11-22T11:05:57;4.13;;;3.72;;
12118;SDS011;6123;48.864;9.200;2023-11-22T11:08:26;4.07;;;3.72;;
12118;SDS011;6123;48.864;9.200;2023-11-22T11:10:54;4.15;;;3.75;;
12118;SDS011;6123;48.864;9.200;2023-11-22T11:13:23;4.30;;;3.90;;
12118;SDS011;6123;48.864;9.200;2023-11-22T11:15:49;4.20;;;3.90;;
12118;SDS011;6123;48.864;9.200;2023-11-22T11:18:17;5.03;;;4.00;;
12118;SDS011;6123;48.864;9.200;2023-11-22T11:20:50;6.65;;;4.45;;
12118;SDS011;6123;48.864;9.200;2023-11-22T11:23:17;5.25;;;4.80;;
12118;SDS011;6123;48.864;9.200;2023-11-22T11:25:47;4.30;;;3.90;;
12118;SDS011;6123;48.864;9.200;2023-11-22T11:28:13;4.13;;;3.83;;
12118;SDS011;6123;48.864;9.200;2023-11-22T11:33:12;4.30;;;3.92;;
12118;SDS011;6123;48.864;9.200;2023-11-22T11:35:48;4.47;;;4.07;;
12118;SDS011;6123;48.864;9.200;2023-11-22T11:38:15;4.65;;;4.25;;
12118;SDS011;6123;48.864;9.200;2023-11-22T11:40:45;4.47;;;4.07;;
12118;SDS011;6123;48.864;9.200;2023-11-22T11:43:12;4.47;;;4.00;;
12118;SDS011;6123;48.864;9.200;2023-11-22T11:45:38;4.55;;;4.15;;
12118;SDS011;6123;48.864;9.200;2023-11-22T11:48:06;4.20;;;3.90;;
12118;SDS011;6123;48.864;9.200;2023-11-22T11:50:32;3.97;;;3.58;;
12118;SDS011;6123;48.864;9.200;2023-11-22T11:52:58;3.83;;;3.53;;
12118;SDS011;6123;48.864;9.200;2023-11-22T11:55:23;5.50;;;4.18;;
12118;SDS011;6123;48.864;9.200;2023-11-22T11:57:53;4.38;;;3.97;;
12118;SDS011;6123;48.864;9.200;2023-11-22T12:00:19;4.55;;;4.15;;
12118;SDS011;6123;48.864;9.200;2023-11-22T12:02:44;4.57;;;4.18;;
12118;SDS011;6123;48.864;9.200;2023-11-22T12:05:10;4.13;;;3.75;;
12118;SDS011;6123;48.864;9.200;2023-11-22T12:07:36;3.72;;;3.42;;
12118;SDS011;6123;48.864;9.200;2023-11-22T12:10:02;4.30;;;3.90;;
12118;SDS011;6123;48.864;9.200;2023-11-22T12:12:32;4.25;;;3.95;;
12118;SDS011;6123;48.864;9.200;2023-11-22T12:14:59;4.22;;;3.92;;
12118;SDS011;6123;48.864;9.200;2023-11-22T12:17:25;4.32;;;3.67;;
12118;SDS011;6123;48.864;9.200;2023-11-22T12:19:52;3.90;;;3.60;;
12118;SDS011;6123;48.864;9.200;2023-11-22T12:22:18;4.10;;;3.75;;
12118;SDS011;6123;48.864;9.200;2023-11-22T12:24:45;4.35;;;3.95;;
12118;SDS011;6123;48.864;9.200;2023-11-22T12:27:10;4.00;;;3.70;;
12118;SDS011;6123;48.864;9.200;2023-11-22T12:29:36;4.50;;;4.10;;
12118;SDS011;6123;48.864;9.200;2023-11-22T12:32:02;4.88;;;4.10;;
12118;SDS011;6123;48.864;9.200;2023-11-22T12:34:28;4.05;;;3.75;;
12118;SDS011;6123;48.864;9.200;2023-11-22T12:36:55;4.82;;;4.00;;
12118;SDS011;6123;48.864;9.200;2023-11-22T12:39:21;4.13;;;3.72;;
12118;SDS011;6123;48.864;9.200;2023-11-22T12:41:48;4.63;;;4.20;;
12118;SDS011;6123;48.864;9.200;2023-11-22T12:44:18;5.15;;;4.18;;
12118;SDS011;6123;48.864;9.200;2023-11-22T12:46:48;5.18;;;4.07;;
12118;SDS011;6123;48.864;9.200;2023-11-22T12:49:15;4.25;;;3.95;;
12118;SDS011;6123;48.864;9.200;2023-11-22T12:51:47;4.88;;;4.38;;
12118;SDS011;6123;48.864;9.200;2023-11-22T12:54:17;4.65;;;4.25;;
12118;SDS011;6123;48.864;9.200;2023-11-22T12:56:46;4.70;;;4.30;;
12118;SDS011;6123;48.864;9.200;2023-11-22T12:59:14;4.80;;;4.40;;
12118;SDS011;6123;48.864;9.200;2023-11-22T13:01:40;4.47;;;4.07;;
12118;SDS011;6123;48.864;9.200;2023-11-22T13:04:06;5.10;;;4.55;;
12118;SDS011;6123;48.864;9.200;2023-11-22T13:06:33;6.30;;;4.35;;
12118;SDS011;6123;48.864;9.200;2023-11-22T13:08:59;4.35;;;3.97;;
12118;SDS011;6123;48.864;9.200;2023-11-22T13:11:24;4.20;;;3.78;;
12118;SDS011;6123;48.864;9.200;2023-11-22T13:13:50;4.22;;;3.92;;
12118;SDS011;6123;48.864;9.200;2023-11-22T13:16:16;4.38;;;3.97;;
12118;SDS011;6123;48.864;9.200;2023-11-22T13:18:42;3.95;;;3.60;;
12118;SDS011;6123;48.864;9.200;2023-11-22T13:21:08;4.57;;;4.18;;
12118;SDS011;6123;48.864;9.200;2023-11-22T13:23:33;4.25;;;3.88;;
12118;SDS011;6123;48.864;9.200;2023-11-22T13:25:59;4.50;;;4.10;;
12118;SDS011;6123;48.864;9.200;2023-11-22T13:28:25;4.07;;;3.78;;
12118;SDS011;6123;48.864;9.200;2023-11-22T13:30:51;4.38;;;4.00;;
12118;SDS011;6123;48.864;9.200;2023-11-22T13:33:17;4.50;;;4.10;;
12118;SDS011;6123;48.864;9.200;2023-11-22T13:35:43;4.75;;;4.28;;
12118;SDS011;6123;48.864;9.200;2023-11-22T13:38:09;4.50;;;4.10;;
12118;SDS011;6123;48.864;9.200;2023-11-22T13:40:38;4.32;;;3.92;;
12118;SDS011;6123;48.864;9.200;2023-11-22T13:43:05;4.50;;;4.10;;
12118;SDS011;6123;48.864;9.200;2023-11-22T13:45:32;5.05;;;4.65;;
12118;SDS011;6123;48.864;9.200;2023-11-22T13:48:01;6.10;;;4.38;;
12118;SDS011;6123;48.864;9.200;2023-11-22T13:50:31;4.38;;;3.97;;
12118;SDS011;6123;48.864;9.200;2023-11-22T13:52:58;4.07;;;3.70;;
12118;SDS011;6123;48.864;9.200;2023-11-22T13:55:24;5.20;;;4.25;;
12118;SDS011;6123;48.864;9.200;2023-11-22T13:57:53;4.07;;;3.67;;
12118;SDS011;6123;48.864;9.200;2023-11-22T14:00:28;4.75;;;4.28;;
12118;SDS011;6123;48.864;9.200;2023-11-22T14:02:58;4.75;;;4.28;;
12118;SDS011;6123;48.864;9.200;2023-11-22T14:05:30;4.43;;;4.05;;
12118;SDS011;6123;48.864;9.200;2023-11-22T14:07:57;4.80;;;4.30;;
12118;SDS011;6123;48.864;9.200;2023-11-22T14:10:23;4.40;;;4.03;;
12118;SDS011;6123;48.864;9.200;2023-11-22T14:12:49;5.60;;;4.00;;
12118;SDS011;6123;48.864;9.200;2023-11-22T14:15:15;4.95;;;4.43;;
12118;SDS011;6123;48.864;9.200;2023-11-22T14:17:41;4.82;;;4.43;;
12118;SDS011;6123;48.864;9.200;2023-11-22T14:20:07;4.55;;;4.15;;
12118;SDS011;6123;48.864;9.200;2023-11-22T14:22:38;4.90;;;4.50;;
12118;SDS011;6123;48.864;9.200;2023-11-22T14:25:04;4.85;;;4.07;;
12118;SDS011;6123;48.864;9.200;2023-11-22T14:27:36;4.38;;;3.97;;
12118;SDS011;6123;48.864;9.200;2023-11-22T14:30:02;5.00;;;4.57;;
12118;SDS011;6123;48.864;9.200;2023-11-22T14:32:32;4.60;;;4.20;;
12118;SDS011;6123;48.864;9.200;2023-11-22T14:34:59;4.72;;;4.32;;
12118;SDS011;6123;48.864;9.200;2023-11-22T14:37:26;4.95;;;4.55;;
12118;SDS011;6123;48.864;9.200;2023-11-22T14:39:52;4.63;;;4.22;;
12118;SDS011;6123;48.864;9.200;2023-11-22T14:42:19;4.80;;;4.30;;
12118;SDS011;6123;48.864;9.200;2023-11-22T14:44:44;4.93;;;4.53;;
12118;SDS011;6123;48.864;9.200;2023-11-22T14:47:10;4.78;;;4.38;;
12118;SDS011;6123;48.864;9.200;2023-11-22T14:49:44;4.43;;;4.10;;
12118;SDS011;6123;48.864;9.200;2023-11-22T14:52:09;4.68;;;4.30;;
12118;SDS011;6123;48.864;9.200;2023-11-22T14:54:35;5.20;;;4.70;;
12118;SDS011;6123;48.864;9.200;2023-11-22T14:57:01;4.43;;;4.13;;
12118;SDS011;6123;48.864;9.200;2023-11-22T14:59:31;4.57;;;4.18;;
12118;SDS011;6123;48.864;9.200;2023-11-22T15:01:56;5.43;;;4.93;;